createdAt,value
2022-12-31T00:00:07.986Z,9.90
2022-12-31T00:01:08.171Z,9.91
2022-12-31T00:02:10.067Z,9.90
2022-12-31T00:03:08.044Z,9.93
2022-12-31T00:04:07.852Z,9.94
2022-12-31T00:05:12.192Z,9.99
2022-12-31T00:06:08.263Z,9.94
2022-12-31T00:07:19.572Z,9.97
2022-12-31T00:08:08.824Z,9.94
2022-12-31T00:09:28.865Z,9.97
2022-12-31T00:10:07.818Z,9.97
2022-12-31T00:11:07.783Z,9.97
2022-12-31T00:12:07.793Z,9.97
2022-12-31T00:13:07.753Z,9.97
2022-12-31T00:14:07.778Z,9.97
2022-12-31T00:15:07.786Z,9.97
2022-12-31T00:16:12.013Z,9.97
2022-12-31T00:17:08.744Z,9.97
2022-12-31T00:18:07.710Z,9.99
2022-12-31T00:19:07.713Z,9.94
2022-12-31T00:20:07.717Z,9.97
2022-12-31T00:21:07.711Z,9.94
2022-12-31T00:22:07.666Z,9.94
2022-12-31T00:23:07.696Z,9.93
2022-12-31T00:24:07.661Z,9.94
2022-12-31T00:25:07.653Z,9.94
2022-12-31T00:26:07.612Z,9.94
2022-12-31T00:27:07.630Z,9.94
2022-12-31T00:28:07.647Z,9.96
2022-12-31T00:29:07.608Z,9.91
2022-12-31T00:30:07.631Z,9.94
2022-12-31T00:31:07.600Z,9.93
2022-12-31T00:32:07.553Z,9.93
2022-12-31T00:33:07.570Z,9.93
2022-12-31T00:34:07.627Z,9.93
2022-12-31T00:35:07.529Z,9.94
2022-12-31T00:36:07.553Z,9.94
2022-12-31T00:37:07.499Z,9.91
2022-12-31T00:38:07.505Z,9.93
2022-12-31T00:39:07.495Z,9.91
2022-12-31T00:40:07.461Z,9.89
2022-12-31T00:41:07.490Z,9.90
2022-12-31T00:42:07.451Z,9.87
2022-12-31T00:43:07.442Z,9.86
2022-12-31T00:44:07.424Z,9.86
2022-12-31T00:45:07.431Z,9.87
2022-12-31T00:46:07.482Z,9.84
2022-12-31T00:47:07.439Z,9.84
2022-12-31T00:48:07.422Z,9.81
2022-12-31T00:49:07.385Z,9.81
2022-12-31T00:50:07.388Z,9.78
2022-12-31T00:51:07.344Z,9.79
2022-12-31T00:52:14.814Z,9.72
2022-12-31T00:53:14.933Z,9.71
2022-12-31T00:54:07.321Z,9.68
2022-12-31T00:55:07.311Z,9.65
2022-12-31T00:56:07.339Z,9.69
2022-12-31T00:57:07.300Z,9.65
2022-12-31T00:58:07.286Z,9.61
2022-12-31T00:59:07.671Z,9.64
2022-12-31T01:00:07.274Z,9.60
2022-12-31T01:01:07.310Z,9.58
2022-12-31T01:02:07.380Z,9.60
2022-12-31T01:03:07.345Z,9.58
2022-12-31T01:04:07.239Z,9.57
2022-12-31T01:05:07.229Z,9.57
2022-12-31T01:06:07.186Z,9.56
2022-12-31T01:07:07.248Z,9.54
2022-12-31T01:08:07.185Z,9.56
2022-12-31T01:09:07.782Z,9.53
2022-12-31T01:10:07.195Z,9.54
2022-12-31T01:11:07.174Z,9.51
2022-12-31T01:12:07.192Z,9.54
2022-12-31T01:13:07.124Z,9.56
2022-12-31T01:14:07.114Z,9.54
2022-12-31T01:15:07.138Z,9.57
2022-12-31T01:16:07.113Z,9.58
2022-12-31T01:17:07.163Z,9.56
2022-12-31T01:18:07.130Z,9.60
2022-12-31T01:19:07.078Z,9.61
2022-12-31T01:20:07.039Z,9.66
2022-12-31T01:21:07.044Z,9.66
2022-12-31T01:22:07.112Z,9.69
2022-12-31T01:23:07.019Z,9.69
2022-12-31T01:24:07.006Z,9.74
2022-12-31T01:25:06.970Z,9.75
2022-12-31T01:26:07.056Z,9.76
2022-12-31T01:27:07.004Z,9.78
2022-12-31T01:28:06.950Z,9.81
2022-12-31T01:29:06.925Z,9.84
2022-12-31T01:30:06.960Z,9.83
2022-12-31T01:31:06.987Z,9.87
2022-12-31T01:32:06.922Z,9.89
2022-12-31T01:33:06.907Z,9.91
2022-12-31T01:34:06.890Z,9.93
2022-12-31T01:35:06.868Z,9.96
2022-12-31T01:36:06.878Z,9.96
2022-12-31T01:37:06.842Z,10.01
2022-12-31T01:38:06.850Z,10.02
2022-12-31T01:39:06.856Z,10.01
2022-12-31T01:40:06.866Z,10.04
2022-12-31T01:41:06.857Z,10.01
2022-12-31T01:42:06.843Z,10.05
2022-12-31T01:43:06.828Z,10.09
2022-12-31T01:44:06.794Z,10.12
2022-12-31T01:45:06.799Z,10.12
2022-12-31T01:46:06.864Z,10.15
2022-12-31T01:47:06.832Z,10.17
2022-12-31T01:48:06.738Z,10.23
2022-12-31T01:49:06.718Z,10.20
2022-12-31T01:50:06.734Z,10.22
2022-12-31T01:51:06.703Z,10.23
2022-12-31T01:52:06.785Z,10.30
2022-12-31T01:53:06.691Z,10.30
2022-12-31T01:54:06.693Z,10.30
2022-12-31T01:55:06.671Z,10.30
2022-12-31T01:56:06.875Z,10.36
2022-12-31T01:57:06.694Z,10.34
2022-12-31T01:58:06.802Z,10.41
2022-12-31T01:59:06.753Z,10.40
2022-12-31T02:00:06.803Z,10.42
2022-12-31T02:01:06.747Z,10.45
2022-12-31T02:02:06.702Z,10.47
2022-12-31T02:03:06.595Z,10.45
2022-12-31T02:04:06.580Z,10.51
2022-12-31T02:05:06.562Z,10.55
2022-12-31T02:06:06.628Z,10.59
2022-12-31T02:07:06.564Z,10.56
2022-12-31T02:08:06.551Z,10.60
2022-12-31T02:09:06.531Z,10.60
2022-12-31T02:10:06.688Z,10.63
2022-12-31T02:11:06.562Z,10.60
2022-12-31T02:12:06.495Z,10.63
2022-12-31T02:13:06.469Z,10.64
2022-12-31T02:14:06.523Z,10.64
2022-12-31T02:15:06.446Z,10.67
2022-12-31T02:16:06.509Z,10.71
2022-12-31T02:17:06.470Z,10.70
2022-12-31T02:18:06.473Z,10.73
2022-12-31T02:19:06.396Z,10.71
2022-12-31T02:20:06.416Z,10.71
2022-12-31T02:21:06.429Z,10.79
2022-12-31T02:22:06.503Z,10.79
2022-12-31T02:23:06.390Z,10.81
2022-12-31T02:24:06.365Z,10.82
2022-12-31T02:25:06.417Z,10.84
2022-12-31T02:26:06.348Z,10.84
2022-12-31T02:27:06.329Z,10.85
2022-12-31T02:28:06.317Z,10.86
2022-12-31T02:29:06.352Z,10.89
2022-12-31T02:30:06.392Z,10.96
2022-12-31T02:31:06.352Z,10.96
2022-12-31T02:32:06.276Z,10.97
2022-12-31T02:33:06.254Z,10.97
2022-12-31T02:34:06.260Z,10.97
2022-12-31T02:35:06.307Z,10.96
2022-12-31T02:36:06.250Z,10.97
2022-12-31T02:37:06.266Z,10.94
2022-12-31T02:38:06.256Z,10.92
2022-12-31T02:39:06.202Z,10.92
2022-12-31T02:40:06.791Z,10.92
2022-12-31T02:41:06.204Z,10.89
2022-12-31T02:42:06.164Z,10.88
2022-12-31T02:43:06.157Z,10.89
2022-12-31T02:44:06.155Z,10.91
2022-12-31T02:45:06.206Z,10.89
2022-12-31T02:46:06.213Z,10.86
2022-12-31T02:47:06.167Z,10.85
2022-12-31T02:48:06.134Z,10.86
2022-12-31T02:49:06.077Z,10.85
2022-12-31T02:50:06.089Z,10.85
2022-12-31T02:51:06.093Z,10.84
2022-12-31T02:52:06.064Z,10.82
2022-12-31T02:53:06.019Z,10.81
2022-12-31T02:54:06.034Z,10.82
2022-12-31T02:55:06.019Z,10.78
2022-12-31T02:56:06.059Z,10.81
2022-12-31T02:57:06.061Z,10.79
2022-12-31T02:58:05.980Z,10.76
2022-12-31T02:59:05.997Z,10.76
2022-12-31T03:00:05.963Z,10.76
2022-12-31T03:01:06.071Z,10.74
2022-12-31T03:02:06.040Z,10.71
2022-12-31T03:03:05.956Z,10.73
2022-12-31T03:04:05.916Z,10.73
2022-12-31T03:05:05.922Z,10.67
2022-12-31T03:06:05.947Z,10.61
2022-12-31T03:07:05.898Z,10.60
2022-12-31T03:08:05.916Z,10.61
2022-12-31T03:09:05.874Z,10.61
2022-12-31T03:10:05.873Z,10.56
2022-12-31T03:11:05.878Z,10.53
2022-12-31T03:12:05.920Z,10.53
2022-12-31T03:13:05.837Z,10.51
2022-12-31T03:14:05.824Z,10.47
2022-12-31T03:15:05.790Z,10.45
2022-12-31T03:16:05.825Z,10.47
2022-12-31T03:17:05.820Z,10.44
2022-12-31T03:18:05.798Z,10.45
2022-12-31T03:19:05.759Z,10.44
2022-12-31T03:20:05.787Z,10.48
2022-12-31T03:21:05.740Z,10.45
2022-12-31T03:22:05.752Z,10.41
2022-12-31T03:23:05.715Z,10.47
2022-12-31T03:24:05.712Z,10.47
2022-12-31T03:25:05.705Z,10.51
2022-12-31T03:26:05.697Z,10.51
2022-12-31T03:27:05.734Z,10.52
2022-12-31T03:28:05.682Z,10.48
2022-12-31T03:29:05.668Z,10.51
2022-12-31T03:30:05.731Z,10.55
2022-12-31T03:31:05.726Z,10.59
2022-12-31T03:32:05.612Z,10.59
2022-12-31T03:33:05.689Z,10.53
2022-12-31T03:34:05.592Z,10.61
2022-12-31T03:35:05.617Z,10.61
2022-12-31T03:36:05.591Z,10.60
2022-12-31T03:37:05.615Z,10.60
2022-12-31T03:38:05.553Z,10.60
2022-12-31T03:39:05.573Z,10.60
2022-12-31T03:40:05.551Z,10.63
2022-12-31T03:41:05.616Z,10.61
2022-12-31T03:42:05.569Z,10.60
2022-12-31T03:43:05.513Z,10.64
2022-12-31T03:44:05.524Z,10.63
2022-12-31T03:45:05.517Z,10.66
2022-12-31T03:46:05.559Z,10.67
2022-12-31T03:47:05.462Z,10.70
2022-12-31T03:48:05.494Z,10.71
2022-12-31T03:49:05.447Z,10.67
2022-12-31T03:50:05.496Z,10.68
2022-12-31T03:51:05.444Z,10.70
2022-12-31T03:52:05.428Z,10.74
2022-12-31T03:53:05.533Z,10.74
2022-12-31T03:54:05.376Z,10.74
2022-12-31T03:55:05.403Z,10.78
2022-12-31T03:56:05.387Z,10.81
2022-12-31T03:57:05.372Z,10.82
2022-12-31T03:58:05.387Z,10.81
2022-12-31T03:59:05.337Z,10.82
2022-12-31T04:00:05.369Z,10.82
2022-12-31T04:01:05.431Z,10.85
2022-12-31T04:02:05.380Z,10.84
2022-12-31T04:03:05.384Z,10.85
2022-12-31T04:04:05.277Z,10.91
2022-12-31T04:05:05.303Z,10.89
2022-12-31T04:06:15.521Z,10.89
2022-12-31T04:07:05.238Z,10.89
2022-12-31T04:08:05.286Z,10.92
2022-12-31T04:09:05.226Z,10.94
2022-12-31T04:10:05.228Z,10.89
2022-12-31T04:11:05.211Z,10.88
2022-12-31T04:12:05.194Z,10.96
2022-12-31T04:13:05.307Z,10.94
2022-12-31T04:14:05.929Z,11.00
2022-12-31T04:15:05.184Z,11.00
2022-12-31T04:16:05.202Z,11.03
2022-12-31T04:17:05.156Z,11.02
2022-12-31T04:18:05.188Z,11.03
2022-12-31T04:19:05.229Z,11.06
2022-12-31T04:20:05.112Z,11.06
2022-12-31T04:21:05.125Z,11.04
2022-12-31T04:22:05.140Z,11.04
2022-12-31T04:23:05.099Z,11.06
2022-12-31T04:24:05.088Z,11.07
2022-12-31T04:25:05.066Z,11.07
2022-12-31T04:26:05.031Z,11.09
2022-12-31T04:27:07.780Z,11.07
2022-12-31T04:28:05.059Z,11.09
2022-12-31T04:29:05.004Z,11.11
2022-12-31T04:30:05.088Z,11.14
2022-12-31T04:31:05.006Z,11.15
2022-12-31T04:32:05.034Z,11.14
2022-12-31T04:33:05.027Z,11.14
2022-12-31T04:34:04.986Z,11.15
2022-12-31T04:35:04.977Z,11.17
2022-12-31T04:36:05.010Z,11.19
2022-12-31T04:37:04.945Z,11.19
2022-12-31T04:38:04.977Z,11.21
2022-12-31T04:39:04.942Z,11.24
2022-12-31T04:40:06.501Z,11.22
2022-12-31T04:41:04.884Z,11.25
2022-12-31T04:42:04.934Z,11.28
2022-12-31T04:43:04.885Z,11.27
2022-12-31T04:44:04.839Z,11.25
2022-12-31T04:45:04.897Z,11.28
2022-12-31T04:46:04.866Z,11.28
2022-12-31T04:47:04.816Z,11.33
2022-12-31T04:48:04.833Z,11.36
2022-12-31T04:49:04.828Z,11.33
2022-12-31T04:50:04.810Z,11.36
2022-12-31T04:51:04.807Z,11.36
2022-12-31T04:52:04.780Z,11.42
2022-12-31T04:53:04.755Z,11.43
2022-12-31T04:54:04.781Z,11.44
2022-12-31T04:55:04.724Z,11.51
2022-12-31T04:56:04.827Z,11.46
2022-12-31T04:57:04.754Z,11.49
2022-12-31T04:58:04.705Z,11.46
2022-12-31T04:59:04.725Z,11.47
2022-12-31T05:00:04.763Z,11.44
2022-12-31T05:01:04.745Z,11.49
2022-12-31T05:02:04.889Z,11.49
2022-12-31T05:03:04.725Z,11.47
2022-12-31T05:04:04.742Z,11.49
2022-12-31T05:05:04.650Z,11.51
2022-12-31T05:06:04.665Z,11.51
2022-12-31T05:07:04.655Z,11.52
2022-12-31T05:08:04.626Z,11.51
2022-12-31T05:09:04.659Z,11.51
2022-12-31T05:10:04.622Z,11.49
2022-12-31T05:11:04.600Z,11.55
2022-12-31T05:12:04.539Z,11.58
2022-12-31T05:13:04.605Z,11.62
2022-12-31T05:14:04.521Z,11.62
2022-12-31T05:15:04.536Z,11.67
2022-12-31T05:16:04.546Z,11.65
2022-12-31T05:17:04.559Z,11.62
2022-12-31T05:18:04.618Z,11.69
2022-12-31T05:19:04.500Z,11.67
2022-12-31T05:20:04.468Z,11.69
2022-12-31T05:21:04.472Z,11.67
2022-12-31T05:22:04.486Z,11.69
2022-12-31T05:23:04.449Z,11.70
2022-12-31T05:24:04.467Z,11.72
2022-12-31T05:25:04.443Z,11.73
2022-12-31T05:26:04.428Z,11.78
2022-12-31T05:27:04.400Z,11.78
2022-12-31T05:28:04.400Z,11.78
2022-12-31T05:29:04.502Z,11.80
2022-12-31T05:30:04.389Z,11.80
2022-12-31T05:31:04.403Z,11.79
2022-12-31T05:32:04.355Z,11.80
2022-12-31T05:33:04.353Z,11.83
2022-12-31T05:34:04.384Z,11.85
2022-12-31T05:35:04.388Z,11.86
2022-12-31T05:36:04.318Z,11.86
2022-12-31T05:37:04.299Z,11.91
2022-12-31T05:38:04.302Z,11.94
2022-12-31T05:39:04.304Z,11.98
2022-12-31T05:40:04.324Z,11.96
2022-12-31T05:41:04.240Z,12.02
2022-12-31T05:42:04.240Z,12.02
2022-12-31T05:43:04.203Z,11.98
2022-12-31T05:44:17.107Z,11.95
2022-12-31T05:45:11.894Z,11.94
2022-12-31T05:46:04.241Z,11.94
2022-12-31T05:47:04.221Z,11.90
2022-12-31T05:48:04.170Z,11.88
2022-12-31T05:49:04.154Z,11.83
2022-12-31T05:50:04.210Z,11.86
2022-12-31T05:51:04.150Z,11.86
2022-12-31T05:52:04.143Z,11.85
2022-12-31T05:53:04.210Z,11.83
2022-12-31T05:54:04.156Z,11.78
2022-12-31T05:55:04.121Z,11.79
2022-12-31T05:56:04.118Z,11.79
2022-12-31T05:57:04.088Z,11.82
2022-12-31T05:58:04.068Z,11.78
2022-12-31T05:59:04.060Z,11.80
2022-12-31T06:00:04.072Z,11.79
2022-12-31T06:01:04.060Z,11.79
2022-12-31T06:02:04.069Z,11.78
2022-12-31T06:03:04.148Z,11.83
2022-12-31T06:04:04.163Z,11.80
2022-12-31T06:05:04.035Z,11.78
2022-12-31T06:06:04.010Z,11.79
2022-12-31T06:07:03.973Z,11.79
2022-12-31T06:08:04.112Z,11.79
2022-12-31T06:09:03.985Z,11.79
2022-12-31T06:10:04.782Z,11.79
2022-12-31T06:11:03.940Z,11.80
2022-12-31T06:12:03.912Z,11.80
2022-12-31T06:13:03.937Z,11.80
2022-12-31T06:14:03.961Z,11.82
2022-12-31T06:15:03.915Z,11.82
2022-12-31T06:16:03.924Z,11.82
2022-12-31T06:17:03.892Z,11.85
2022-12-31T06:18:03.885Z,11.80
2022-12-31T06:19:03.865Z,11.82
2022-12-31T06:20:08.862Z,11.85
2022-12-31T06:21:04.820Z,11.85
2022-12-31T06:22:03.828Z,11.88
2022-12-31T06:23:03.823Z,11.88
2022-12-31T06:24:03.787Z,11.88
2022-12-31T06:25:03.833Z,11.85
2022-12-31T06:26:03.866Z,11.83
2022-12-31T06:27:03.765Z,11.86
2022-12-31T06:28:03.778Z,11.85
2022-12-31T06:29:03.736Z,11.85
2022-12-31T06:30:03.741Z,11.94
2022-12-31T06:31:03.781Z,11.94
2022-12-31T06:32:03.734Z,11.95
2022-12-31T06:33:03.713Z,11.95
2022-12-31T06:34:03.699Z,11.95
2022-12-31T06:35:03.691Z,11.98
2022-12-31T06:36:03.693Z,12.01
2022-12-31T06:37:03.731Z,12.04
2022-12-31T06:38:03.637Z,12.09
2022-12-31T06:39:03.657Z,12.07
2022-12-31T06:40:03.618Z,12.09
2022-12-31T06:41:03.619Z,12.13
2022-12-31T06:42:03.684Z,12.16
2022-12-31T06:43:03.614Z,12.17
2022-12-31T06:44:03.572Z,12.24
2022-12-31T06:45:03.610Z,12.24
2022-12-31T06:46:03.656Z,12.28
2022-12-31T06:47:03.489Z,12.27
2022-12-31T06:48:03.490Z,12.31
2022-12-31T06:49:03.491Z,12.29
2022-12-31T06:50:03.481Z,12.31
2022-12-31T06:51:03.470Z,12.35
2022-12-31T06:52:03.436Z,12.37
2022-12-31T06:53:03.439Z,12.38
2022-12-31T06:54:03.419Z,12.42
2022-12-31T06:55:03.421Z,12.47
2022-12-31T06:56:03.411Z,12.50
2022-12-31T06:57:03.381Z,12.54
2022-12-31T06:58:03.404Z,12.53
2022-12-31T06:59:03.379Z,12.52
2022-12-31T07:00:03.412Z,12.57
2022-12-31T07:01:03.453Z,12.59
2022-12-31T07:02:03.431Z,12.60
2022-12-31T07:03:03.447Z,12.62
2022-12-31T07:04:03.347Z,12.67
2022-12-31T07:05:03.342Z,12.64
2022-12-31T07:06:03.631Z,12.67
2022-12-31T07:07:03.275Z,12.70
2022-12-31T07:08:03.296Z,12.67
2022-12-31T07:09:03.277Z,12.70
2022-12-31T07:10:03.237Z,12.71
2022-12-31T07:11:03.245Z,12.72
2022-12-31T07:12:03.235Z,12.79
2022-12-31T07:13:03.192Z,12.82
2022-12-31T07:14:03.259Z,12.83
2022-12-31T07:15:03.216Z,12.89
2022-12-31T07:16:03.228Z,12.95
2022-12-31T07:17:03.148Z,12.95
2022-12-31T07:18:03.169Z,13.01
2022-12-31T07:19:03.147Z,13.00
2022-12-31T07:20:03.131Z,13.01
2022-12-31T07:21:03.167Z,13.05
2022-12-31T07:22:03.154Z,13.03
2022-12-31T07:23:03.152Z,13.04
2022-12-31T07:24:03.096Z,13.07
2022-12-31T07:25:03.132Z,13.10
2022-12-31T07:26:03.810Z,13.15
2022-12-31T07:27:03.106Z,13.19
2022-12-31T07:28:03.098Z,13.22
2022-12-31T07:29:03.048Z,13.29
2022-12-31T07:30:03.047Z,13.28
2022-12-31T07:31:03.143Z,13.28
2022-12-31T07:32:02.987Z,13.29
2022-12-31T07:33:03.037Z,13.32
2022-12-31T07:34:03.047Z,13.30
2022-12-31T07:35:03.008Z,13.29
2022-12-31T07:36:02.978Z,13.28
2022-12-31T07:37:02.929Z,13.29
2022-12-31T07:38:02.963Z,13.33
2022-12-31T07:39:02.917Z,13.33
2022-12-31T07:40:02.902Z,13.39
2022-12-31T07:41:09.356Z,13.45
2022-12-31T07:42:03.939Z,13.38
2022-12-31T07:43:02.958Z,13.46
2022-12-31T07:44:02.883Z,13.48
2022-12-31T07:45:02.866Z,13.48
2022-12-31T07:46:02.910Z,13.49
2022-12-31T07:47:02.842Z,13.55
2022-12-31T07:48:03.257Z,13.55
2022-12-31T07:49:03.089Z,13.59
2022-12-31T07:50:02.876Z,13.60
2022-12-31T07:51:02.816Z,13.63
2022-12-31T07:52:02.787Z,13.64
2022-12-31T07:53:02.806Z,13.73
2022-12-31T07:54:04.660Z,13.71
2022-12-31T07:55:02.765Z,13.73
2022-12-31T07:56:02.754Z,13.82
2022-12-31T07:57:02.741Z,13.88
2022-12-31T07:58:02.750Z,13.89
2022-12-31T07:59:02.740Z,13.85
2022-12-31T08:00:02.694Z,13.87
2022-12-31T08:01:02.761Z,13.87
2022-12-31T08:02:02.942Z,13.85
2022-12-31T08:03:02.795Z,13.85
2022-12-31T08:04:02.679Z,13.87
2022-12-31T08:05:02.648Z,13.88
2022-12-31T08:06:02.654Z,13.88
2022-12-31T08:07:02.615Z,13.88
2022-12-31T08:08:02.642Z,13.96
2022-12-31T08:09:02.615Z,13.91
2022-12-31T08:10:02.617Z,13.92
2022-12-31T08:11:02.590Z,13.92
2022-12-31T08:12:02.603Z,13.96
2022-12-31T08:13:02.583Z,13.99
2022-12-31T08:14:02.565Z,13.97
2022-12-31T08:15:02.529Z,14.00
2022-12-31T08:16:02.715Z,14.03
2022-12-31T08:17:02.527Z,14.02
2022-12-31T08:18:02.599Z,14.03
2022-12-31T08:19:02.528Z,14.06
2022-12-31T08:20:02.485Z,14.09
2022-12-31T08:21:02.472Z,14.12
2022-12-31T08:22:02.447Z,14.17
2022-12-31T08:23:02.454Z,14.17
2022-12-31T08:24:02.477Z,14.18
2022-12-31T08:25:02.494Z,14.20
2022-12-31T08:26:02.421Z,14.22
2022-12-31T08:27:02.430Z,14.21
2022-12-31T08:28:02.413Z,14.21
2022-12-31T08:29:02.389Z,14.22
2022-12-31T08:30:02.413Z,14.28
2022-12-31T08:31:02.397Z,14.24
2022-12-31T08:32:02.406Z,14.24
2022-12-31T08:33:02.329Z,14.24
2022-12-31T08:34:05.986Z,14.32
2022-12-31T08:35:02.346Z,14.33
2022-12-31T08:36:02.382Z,14.32
2022-12-31T08:37:02.469Z,14.40
2022-12-31T08:38:02.286Z,14.39
2022-12-31T08:39:02.384Z,14.37
2022-12-31T08:40:02.277Z,14.39
2022-12-31T08:41:02.326Z,14.43
2022-12-31T08:42:02.252Z,14.42
2022-12-31T08:43:02.230Z,14.45
2022-12-31T08:44:02.314Z,14.45
2022-12-31T08:45:02.251Z,14.51
2022-12-31T08:46:02.242Z,14.52
2022-12-31T08:47:02.194Z,14.54
2022-12-31T08:48:02.184Z,14.55
2022-12-31T08:49:02.207Z,14.57
2022-12-31T08:50:02.141Z,14.58
2022-12-31T08:51:02.152Z,14.60
2022-12-31T08:52:02.151Z,14.65
2022-12-31T08:53:02.099Z,14.73
2022-12-31T08:54:02.125Z,14.69
2022-12-31T08:55:02.121Z,14.73
2022-12-31T08:56:02.094Z,14.72
2022-12-31T08:57:02.083Z,14.77
2022-12-31T08:58:02.061Z,14.80
2022-12-31T08:59:02.180Z,14.81
2022-12-31T09:00:02.088Z,14.83
2022-12-31T09:01:02.151Z,14.83
2022-12-31T09:02:02.195Z,14.84
2022-12-31T09:03:02.020Z,14.84
2022-12-31T09:04:02.113Z,14.84
2022-12-31T09:05:02.018Z,14.86
2022-12-31T09:06:02.015Z,14.84
2022-12-31T09:07:02.016Z,14.83
2022-12-31T09:08:02.047Z,14.92
2022-12-31T09:09:01.949Z,14.98
2022-12-31T09:10:01.984Z,14.92
2022-12-31T09:11:01.938Z,14.95
2022-12-31T09:12:01.965Z,14.92
2022-12-31T09:13:01.947Z,14.99
2022-12-31T09:14:01.913Z,15.07
2022-12-31T09:15:01.919Z,15.14
2022-12-31T09:16:01.871Z,15.11
2022-12-31T09:17:01.869Z,15.13
2022-12-31T09:18:01.880Z,15.17
2022-12-31T09:19:01.897Z,15.20
2022-12-31T09:20:01.882Z,15.23
2022-12-31T09:21:01.837Z,15.28
2022-12-31T09:22:01.792Z,15.34
2022-12-31T09:23:01.814Z,15.34
2022-12-31T09:24:07.472Z,15.34
2022-12-31T09:25:02.798Z,15.34
2022-12-31T09:26:01.756Z,15.36
2022-12-31T09:27:01.765Z,15.44
2022-12-31T09:28:01.771Z,15.46
2022-12-31T09:29:01.794Z,15.49
2022-12-31T09:30:01.769Z,15.53
2022-12-31T09:31:01.715Z,15.64
2022-12-31T09:32:01.780Z,15.67
2022-12-31T09:33:01.786Z,15.72
2022-12-31T09:34:01.720Z,15.71
2022-12-31T09:35:01.689Z,15.80
2022-12-31T09:36:01.703Z,15.82
2022-12-31T09:37:01.654Z,15.86
2022-12-31T09:38:05.242Z,15.83
2022-12-31T09:39:02.708Z,15.87
2022-12-31T09:40:01.683Z,15.90
2022-12-31T09:41:01.626Z,15.92
2022-12-31T09:42:01.591Z,15.97
2022-12-31T09:43:01.582Z,16.00
2022-12-31T09:44:01.727Z,16.00
2022-12-31T09:45:01.585Z,16.04
2022-12-31T09:46:01.616Z,16.02
2022-12-31T09:47:01.578Z,16.02
2022-12-31T09:48:01.545Z,16.04
2022-12-31T09:49:01.537Z,15.96
2022-12-31T09:50:01.604Z,16.01
2022-12-31T09:51:01.553Z,16.04
2022-12-31T09:52:01.507Z,16.02
2022-12-31T09:53:01.546Z,16.02
2022-12-31T09:54:01.559Z,16.08
2022-12-31T09:55:01.489Z,16.17
2022-12-31T09:56:01.479Z,16.27
2022-12-31T09:57:01.433Z,16.33
2022-12-31T09:58:01.441Z,16.30
2022-12-31T09:59:01.468Z,16.33
2022-12-31T10:00:01.415Z,16.43
2022-12-31T10:01:01.621Z,16.48
2022-12-31T10:02:01.689Z,16.48
2022-12-31T10:03:01.423Z,16.46
2022-12-31T10:04:01.374Z,16.50
2022-12-31T10:05:01.431Z,16.53
2022-12-31T10:06:01.463Z,16.56
2022-12-31T10:07:01.468Z,16.60
2022-12-31T10:08:01.342Z,16.60
2022-12-31T10:09:01.313Z,16.57
2022-12-31T10:10:01.312Z,16.53
2022-12-31T10:11:01.316Z,16.53
2022-12-31T10:12:01.326Z,16.53
2022-12-31T10:13:01.284Z,16.46
2022-12-31T10:14:01.275Z,16.39
2022-12-31T10:15:01.255Z,16.35
2022-12-31T10:16:01.252Z,16.38
2022-12-31T10:17:01.301Z,16.41
2022-12-31T10:18:01.233Z,16.35
2022-12-31T10:19:01.211Z,16.33
2022-12-31T10:20:01.320Z,16.42
2022-12-31T10:21:57.580Z,16.46
2022-12-31T10:22:57.857Z,16.48
2022-12-31T10:23:59.559Z,16.49
2022-12-31T10:24:57.813Z,16.48
2022-12-31T10:25:57.814Z,16.49
2022-12-31T10:26:57.783Z,16.56
2022-12-31T10:27:58.248Z,16.61
2022-12-31T10:28:57.783Z,16.61
2022-12-31T10:29:57.761Z,16.56
2022-12-31T10:30:57.799Z,16.61
2022-12-31T10:31:57.721Z,16.60
2022-12-31T10:32:57.721Z,16.64
2022-12-31T10:33:57.740Z,16.61
2022-12-31T10:34:57.694Z,16.58
2022-12-31T10:35:57.742Z,16.56
2022-12-31T10:36:57.728Z,16.60
2022-12-31T10:37:57.668Z,16.53
2022-12-31T10:38:57.669Z,16.53
2022-12-31T10:39:57.632Z,16.53
2022-12-31T10:40:57.701Z,16.60
2022-12-31T10:41:57.751Z,16.60
2022-12-31T10:42:57.683Z,16.64
2022-12-31T10:43:57.664Z,16.67
2022-12-31T10:44:57.574Z,16.78
2022-12-31T10:45:57.894Z,16.83
2022-12-31T10:46:57.608Z,16.76
2022-12-31T10:47:57.609Z,16.79
2022-12-31T10:48:57.564Z,16.83
2022-12-31T10:49:57.558Z,16.85
2022-12-31T10:50:57.518Z,16.86
2022-12-31T10:51:57.523Z,16.86
2022-12-31T10:52:57.545Z,16.88
2022-12-31T10:53:57.533Z,16.91
2022-12-31T10:54:57.476Z,16.97
2022-12-31T10:55:57.468Z,16.96
2022-12-31T10:56:57.482Z,16.96
2022-12-31T10:58:03.654Z,16.88
2022-12-31T10:58:58.446Z,16.79
2022-12-31T10:59:57.411Z,16.81
2022-12-31T11:00:57.499Z,16.78
2022-12-31T11:01:57.548Z,16.78
2022-12-31T11:02:57.559Z,16.83
2022-12-31T11:03:57.410Z,16.81
2022-12-31T11:04:57.379Z,16.82
2022-12-31T11:05:57.379Z,16.82
2022-12-31T11:06:57.387Z,16.83
2022-12-31T11:07:57.347Z,16.81
2022-12-31T11:08:57.360Z,16.81
2022-12-31T11:09:57.299Z,16.76
2022-12-31T11:10:57.368Z,16.73
2022-12-31T11:11:57.303Z,16.73
2022-12-31T11:12:57.285Z,16.73
2022-12-31T11:13:57.297Z,16.73
2022-12-31T11:14:57.320Z,16.73
2022-12-31T11:15:57.410Z,16.70
2022-12-31T11:16:57.314Z,16.67
2022-12-31T11:17:57.273Z,16.61
2022-12-31T11:18:57.308Z,16.58
2022-12-31T11:19:57.272Z,16.60
2022-12-31T11:20:57.299Z,16.64
2022-12-31T11:21:57.210Z,16.64
2022-12-31T11:22:57.380Z,16.63
2022-12-31T11:23:57.224Z,16.64
2022-12-31T11:24:57.183Z,16.66
2022-12-31T11:25:57.214Z,16.67
2022-12-31T11:26:57.135Z,16.67
2022-12-31T11:27:57.135Z,16.70
2022-12-31T11:28:57.132Z,16.71
2022-12-31T11:29:57.119Z,16.75
2022-12-31T11:30:57.197Z,16.81
2022-12-31T11:31:57.099Z,16.85
2022-12-31T11:32:57.117Z,16.83
2022-12-31T11:33:57.112Z,16.82
2022-12-31T11:34:57.063Z,16.82
2022-12-31T11:35:57.106Z,16.86
2022-12-31T11:36:57.061Z,16.85
2022-12-31T11:37:57.027Z,16.85
2022-12-31T11:38:57.068Z,16.83
2022-12-31T11:39:57.014Z,16.82
2022-12-31T11:40:57.177Z,16.82
2022-12-31T11:41:57.440Z,16.81
2022-12-31T11:42:57.309Z,16.88
2022-12-31T11:43:57.107Z,16.86
2022-12-31T11:44:56.932Z,16.86
2022-12-31T11:45:57.179Z,16.88
2022-12-31T11:46:56.940Z,16.85
2022-12-31T11:48:29.170Z,16.83
2022-12-31T11:48:57.937Z,16.88
2022-12-31T11:49:56.891Z,16.96
2022-12-31T11:50:57.509Z,17.00
2022-12-31T11:51:56.955Z,16.98
2022-12-31T11:52:56.872Z,17.00
2022-12-31T11:53:56.864Z,17.01
2022-12-31T11:54:56.842Z,17.07
2022-12-31T11:55:56.834Z,17.11
2022-12-31T11:56:56.814Z,17.11
2022-12-31T11:57:56.814Z,17.16
2022-12-31T11:58:56.802Z,17.15
2022-12-31T11:59:56.861Z,17.14
2022-12-31T12:00:56.975Z,17.16
2022-12-31T12:01:56.763Z,17.18
2022-12-31T12:02:56.817Z,17.22
2022-12-31T12:03:56.863Z,17.23
2022-12-31T12:04:56.726Z,17.26
2022-12-31T12:05:56.719Z,17.22
2022-12-31T12:06:56.712Z,17.19
2022-12-31T12:07:56.684Z,17.21
2022-12-31T12:08:56.698Z,17.22
2022-12-31T12:09:56.676Z,17.26
2022-12-31T12:10:56.702Z,17.26
2022-12-31T12:11:56.754Z,17.28
2022-12-31T12:12:56.726Z,17.31
2022-12-31T12:13:56.732Z,17.36
2022-12-31T12:14:56.626Z,17.40
2022-12-31T12:15:56.650Z,17.43
2022-12-31T12:17:02.435Z,17.44
2022-12-31T12:17:57.646Z,17.51
2022-12-31T12:18:57.710Z,17.54
2022-12-31T12:19:56.616Z,17.54
2022-12-31T12:20:56.571Z,17.55
2022-12-31T12:21:56.725Z,17.58
2022-12-31T12:22:56.620Z,17.59
2022-12-31T12:23:56.720Z,17.56
2022-12-31T12:24:56.521Z,17.55
2022-12-31T12:25:56.522Z,17.52
2022-12-31T12:26:56.470Z,17.49
2022-12-31T12:27:56.517Z,17.52
2022-12-31T12:28:56.503Z,17.54
2022-12-31T12:29:56.455Z,17.52
2022-12-31T12:30:56.453Z,17.52
2022-12-31T12:31:56.606Z,17.54
2022-12-31T12:32:56.451Z,17.59
2022-12-31T12:33:56.437Z,17.58
2022-12-31T12:34:56.435Z,17.59
2022-12-31T12:35:56.388Z,17.58
2022-12-31T12:36:56.430Z,17.52
2022-12-31T12:37:56.377Z,17.51
2022-12-31T12:38:56.449Z,17.51
2022-12-31T12:39:56.391Z,17.52
2022-12-31T12:40:56.332Z,17.48
2022-12-31T12:41:56.393Z,17.49
2022-12-31T12:42:56.878Z,17.49
2022-12-31T12:43:56.347Z,17.44
2022-12-31T12:44:56.576Z,17.48
2022-12-31T12:45:56.302Z,17.48
2022-12-31T12:46:56.407Z,17.51
2022-12-31T12:47:56.329Z,17.49
2022-12-31T12:48:56.378Z,17.49
2022-12-31T12:49:56.259Z,17.49
2022-12-31T12:50:56.258Z,17.51
2022-12-31T12:51:56.618Z,17.51
2022-12-31T12:52:59.399Z,17.48
2022-12-31T12:53:56.326Z,17.48
2022-12-31T12:54:56.205Z,17.41
2022-12-31T12:55:56.179Z,17.44